KWWD/WWD METAR and TAF weather

Enter ICAO airport designator
Station Type Date Time Source
KWWD METAR 2018/12/13 21:55 UTC NOAA

KWWD 132155Z AUTO 09003KT 10SM CLR 07/03 A3038 RMK AO2 SLP289 T00720033


Station Type Date Time Source
KWWD Decoded METAR 2018/12/13 21:55 UTC NOAA

Wildwood, Cape May County Airport, NJ, United States (KWWD) 39-01N 074-55W
Dec 13, 2018 - 04:55 PM EST / 2018.12.13 2155 UTC
Wind: from the E (090 degrees) at 3 MPH (3 KT):0
Visibility: 10 mile(s):0
Sky conditions: clear
Temperature: 45.0 F (7.2 C)
Dew Point: 37.9 F (3.3 C)
Relative Humidity: 76%
Pressure (altimeter): 30.38 in. Hg (1028 hPa)
ob: KWWD 132155Z AUTO 09003KT 10SM CLR 07/03 A3038 RMK AO2 SLP289 T00720033
cycle: 22

Station Type Date Time Source
KWWD TAF UTC NOAA

Error!


Example: see airport list